This is the latest recevied weather packets stored in our database for station/object BM1CCR-13. If no packets are shown the sender has not sent any weather packets the latest 10 day(s).
| Time | Temp. | Humidity | Pressure | Rain* | Wind** | Luminosity | Snow |
|---|---|---|---|---|---|---|---|
| 1778142094 | 26.67° C | 73% | 999.6 hPa | 0 mm | - | - | - |
| 1778142085 | 26.67° C | 73% | 999.7 hPa | 0 mm | - | - | - |
| 1778141794 | 27.78° C | 72% | 999.5 hPa | 0 mm | - | - | - |
| 1778141785 | 27.78° C | 72% | 999.7 hPa | 0 mm | - | - | - |
| 1778141493 | 27.78° C | 70% | 999.6 hPa | 0 mm | - | - | - |
| 1778141484 | 27.78° C | 70% | 999.7 hPa | 0 mm | - | - | - |
| 1778141193 | 27.78° C | 69% | 999.7 hPa | 0 mm | - | - | - |
| 1778141184 | 27.78° C | 69% | 999.6 hPa | 0 mm | - | - | - |
| 1778140893 | 27.78° C | 68% | 999.5 hPa | 0 mm | - | - | - |
| 1778140885 | 27.78° C | 68% | 999.6 hPa | 0 mm | - | - | - |
| 1778140591 | 28.89° C | 66% | 999.5 hPa | 0 mm | - | - | - |
| 1778140583 | 28.89° C | 66% | 999.4 hPa | 0 mm | - | - | - |
| 1778140291 | 30° C | 63% | 999.5 hPa | 0 mm | - | - | - |
| 1778140283 | 30° C | 62% | 999.5 hPa | 0 mm | - | - | - |
| 1778139984 | 30° C | 59% | 999.6 hPa | 0 mm | - | - | - |
| 1778139690 | 31.67° C | 55% | 999.6 hPa | 0 mm | - | - | - |
| 1778139683 | 31.67° C | 55% | 999.5 hPa | 0 mm | - | - | - |
| 1778139383 | 30.56° C | 55% | 999.6 hPa | 0 mm | - | - | - |
| 1778139083 | 32.78° C | 53% | 999.6 hPa | 0 mm | - | - | - |
| 1778138782 | 30.56° C | 55% | 999.6 hPa | 0 mm | - | - | - |
| 1778138482 | 32.78° C | 50% | 999.6 hPa | 0 mm | - | - | - |
| 1778138191 | 33.89° C | 49% | 999.5 hPa | 0 mm | - | - | - |
| 1778138182 | 33.89° C | 49% | 999.6 hPa | 0 mm | - | - | - |
| 1778137882 | 32.78° C | 51% | 999.6 hPa | 0 mm | - | - | - |
| 1778137582 | 32.78° C | 52% | 999.6 hPa | 0 mm | - | - | - |
* Rain latest hour (hover to see other rain measurements)
** Current wind speed in m/s (hover to see current wind gust speed)